createdAt,value
2023-04-05T00:04:09.123Z,100874.41
2023-04-05T00:09:14.734Z,100873.44
2023-04-05T00:14:19.965Z,100879.69
2023-04-05T00:19:25.229Z,100886.19
2023-04-05T00:24:30.772Z,100912.75
2023-04-05T00:29:36.337Z,100868.91
2023-04-05T00:34:41.747Z,100872.47
2023-04-05T00:39:47.215Z,100875.94
2023-04-05T00:44:53.003Z,100909.44
2023-04-05T00:49:59.027Z,100902.88
2023-04-05T00:55:05.431Z,100874.41
2023-04-05T01:00:13.042Z,100869.78
2023-04-05T01:05:50.944Z,100862.41
2023-04-05T01:11:02.027Z,100859.72
2023-04-05T01:16:07.618Z,100853.53
2023-04-05T01:22:00.639Z,100865.81
2023-04-05T01:27:23.829Z,100865.16
2023-04-05T01:32:46.301Z,100865.31
2023-04-05T01:37:57.797Z,100869.81
2023-04-05T01:43:16.053Z,100870.63
2023-04-05T01:48:21.305Z,100874.69
2023-04-05T01:53:26.645Z,100880.97
2023-04-05T01:58:33.300Z,100884.59
2023-04-05T02:03:39.251Z,100891.34
2023-04-05T02:08:47.155Z,100896.75
2023-04-05T02:13:54.801Z,100884.91
2023-04-05T02:19:01.073Z,100899.19
2023-04-05T02:24:07.073Z,100907.56
2023-04-05T02:29:13.417Z,100913.41
2023-04-05T02:34:19.810Z,100906.41
2023-04-05T02:39:25.808Z,100909.44
2023-04-05T02:44:32.476Z,100930.03
2023-04-05T02:49:38.370Z,100914.28
2023-04-05T02:54:45.603Z,100908.81
2023-04-05T02:59:54.577Z,100912.13
2023-04-05T03:05:07.277Z,100899.97
2023-04-05T03:10:15.190Z,100892.94
2023-04-05T03:15:20.907Z,100883.09
2023-04-05T03:20:26.957Z,100883.25
2023-04-05T03:25:42.809Z,100885.34
2023-04-05T03:30:49.825Z,100881.59
2023-04-05T03:35:57.660Z,100879.31
2023-04-05T03:41:04.780Z,100871.88
2023-04-05T03:46:13.386Z,100875.91
2023-04-05T03:51:20.277Z,100885.94
2023-04-05T03:56:28.675Z,100855.03
2023-04-05T04:01:40.339Z,100846.59
2023-04-05T04:06:46.286Z,100855.63
2023-04-05T04:11:55.095Z,100838.91
2023-04-05T04:17:02.066Z,100824.63
2023-04-05T04:22:11.392Z,100841.81
2023-04-05T04:27:45.210Z,100828.09
2023-04-05T04:32:59.270Z,100830.84
2023-04-05T04:38:08.858Z,100825.13
2023-04-05T04:43:28.492Z,100803.66
2023-04-05T04:48:50.230Z,100796.16
2023-04-05T04:54:07.727Z,100786.50
2023-04-05T04:59:13.319Z,100791.78
2023-04-05T05:04:19.043Z,100781.97
2023-04-05T05:09:24.935Z,100777.84
2023-04-05T05:14:35.679Z,100762.03
2023-04-05T05:19:41.109Z,100740.75
2023-04-05T05:24:47.906Z,100728.47
2023-04-05T05:29:54.043Z,100716.41
2023-04-05T05:34:59.709Z,100709.25
2023-04-05T05:40:07.373Z,100691.16
2023-04-05T05:45:13.108Z,100685.28
2023-04-05T05:50:19.117Z,100669.28
2023-04-05T05:55:24.631Z,100669.75
2023-04-05T06:00:30.134Z,100655.16
2023-04-05T06:05:37.235Z,100648.13
2023-04-05T06:10:42.777Z,100640.13
2023-04-05T06:15:50.176Z,100618.72
2023-04-05T06:20:57.752Z,100619.38
2023-04-05T06:26:03.422Z,100613.41
2023-04-05T06:31:12.237Z,100599.53
2023-04-05T06:36:17.261Z,100598.44
2023-04-05T06:41:23.635Z,100591.78
2023-04-05T06:46:29.343Z,100580.88
2023-04-05T06:51:35.000Z,100577.56
2023-04-05T06:56:43.334Z,100587.34
2023-04-05T07:01:49.576Z,100560.38
2023-04-05T07:06:56.306Z,100552.94
2023-04-05T07:12:02.966Z,100573.16
2023-04-05T07:17:10.669Z,100551.56
2023-04-05T07:22:16.043Z,100549.50
2023-04-05T07:27:24.380Z,100541.94
2023-04-05T07:32:30.047Z,100538.28
2023-04-05T07:37:38.664Z,100537.88
2023-04-05T07:42:44.526Z,100533.34
2023-04-05T07:47:49.876Z,100551.47
2023-04-05T07:52:55.683Z,100529.28
2023-04-05T07:58:01.119Z,100522.63
2023-04-05T08:03:06.670Z,100527.38
2023-04-05T08:08:12.546Z,100528.53
2023-04-05T08:13:17.820Z,100533.84
2023-04-05T08:18:24.835Z,100548.75
2023-04-05T08:23:30.364Z,100572.00
2023-04-05T08:28:36.589Z,100540.56
2023-04-05T08:33:42.943Z,100537.44
2023-04-05T08:38:49.139Z,100542.59
2023-04-05T08:44:00.361Z,100507.63
2023-04-05T08:49:09.735Z,100538.47
2023-04-05T08:54:16.401Z,100510.72
2023-04-05T08:59:22.785Z,100497.38
2023-04-05T09:04:33.656Z,100484.41
2023-04-05T09:09:41.449Z,100482.06
2023-04-05T09:14:47.545Z,100487.03
2023-04-05T09:19:52.882Z,100493.56
2023-04-05T09:24:58.442Z,100486.34
2023-04-05T09:30:06.941Z,100484.91
2023-04-05T09:35:33.602Z,100493.47
2023-04-05T09:40:50.224Z,100496.53
2023-04-05T09:46:02.963Z,100490.50
2023-04-05T09:56:17.753Z,100492.16
2023-04-05T10:01:23.551Z,100503.63
2023-04-05T10:06:47.012Z,100500.47
2023-04-05T10:11:53.102Z,100530.34
2023-04-05T10:17:13.971Z,100500.91
2023-04-05T10:22:31.322Z,100509.22
2023-04-05T10:27:47.319Z,100519.56
2023-04-05T10:33:01.731Z,100524.56
2023-04-05T10:38:17.400Z,100534.06
2023-04-05T10:43:28.318Z,100535.91
2023-04-05T10:49:06.854Z,100539.88
2023-04-05T10:54:13.798Z,100551.03
2023-04-05T10:59:21.213Z,100552.34
2023-04-05T11:04:26.658Z,100562.06
2023-04-05T11:09:33.109Z,100575.47
2023-04-05T11:14:43.076Z,100581.31
2023-04-05T11:19:48.495Z,100578.59
2023-04-05T11:24:57.892Z,100587.47
2023-04-05T11:30:05.199Z,100598.69
2023-04-05T11:35:27.083Z,100610.03
2023-04-05T11:40:33.606Z,100618.06
2023-04-05T11:45:45.353Z,100624.31
2023-04-05T11:50:56.061Z,100637.00
2023-04-05T11:56:10.373Z,100651.66
2023-04-05T12:01:16.273Z,100656.88
2023-04-05T12:06:26.344Z,100660.50
2023-04-05T12:11:35.322Z,100658.72
2023-04-05T12:16:52.203Z,100659.66
2023-04-05T12:21:58.021Z,100663.69
2023-04-05T12:27:02.808Z,100655.72
2023-04-05T12:32:08.684Z,100654.59
2023-04-05T12:37:14.355Z,100651.47
2023-04-05T12:42:20.544Z,100696.16
2023-04-05T12:47:27.786Z,100664.00
2023-04-05T12:52:33.583Z,100651.38
2023-04-05T12:57:42.567Z,100682.16
2023-04-05T13:02:53.053Z,100665.09
2023-04-05T13:07:59.130Z,100669.59
2023-04-05T13:13:05.652Z,100677.25
2023-04-05T13:18:12.496Z,100680.13
2023-04-05T13:23:18.222Z,100667.69
2023-04-05T13:28:24.144Z,100657.09
2023-04-05T13:33:30.401Z,100645.19
2023-04-05T13:38:35.941Z,100642.72
2023-04-05T13:43:42.923Z,100638.94
2023-04-05T13:48:48.440Z,100635.47
2023-04-05T13:53:53.924Z,100629.38
2023-04-05T13:58:59.479Z,100638.50
2023-04-05T14:04:06.984Z,100647.28
2023-04-05T14:09:12.848Z,100649.59
2023-04-05T14:14:19.446Z,100655.38
2023-04-05T14:19:25.562Z,100664.19
2023-04-05T14:24:31.189Z,100666.00
2023-04-05T14:29:37.336Z,100669.34
2023-04-05T14:34:42.969Z,100661.38
2023-04-05T14:39:48.590Z,100670.69
2023-04-05T14:44:54.263Z,100693.91
2023-04-05T14:50:00.072Z,100686.25
2023-04-05T14:55:06.587Z,100679.28
2023-04-05T15:00:15.091Z,100682.94
2023-04-05T15:05:21.347Z,100673.69
2023-04-05T15:10:27.001Z,100690.25
2023-04-05T15:15:32.908Z,100696.06
2023-04-05T15:20:39.161Z,100693.06
2023-04-05T15:25:44.638Z,100691.44
2023-04-05T15:30:52.463Z,100695.38
2023-04-05T15:35:57.929Z,100683.63
2023-04-05T15:41:03.358Z,100682.16
2023-04-05T15:46:08.828Z,100680.50
2023-04-05T15:51:14.543Z,100677.34
2023-04-05T15:56:20.233Z,100670.03
2023-04-05T16:01:25.186Z,100669.06
2023-04-05T16:06:31.584Z,100685.63
2023-04-05T16:11:37.693Z,100683.63
2023-04-05T16:16:53.078Z,100682.63
2023-04-05T16:21:59.440Z,100678.66
2023-04-05T16:27:05.118Z,100673.19
2023-04-05T16:32:10.810Z,100679.00
2023-04-05T16:37:16.297Z,100675.00
2023-04-05T16:42:23.904Z,100660.44
2023-04-05T16:47:29.450Z,100650.47
2023-04-05T16:52:35.043Z,100638.72
2023-04-05T16:57:40.531Z,100656.09
2023-04-05T17:02:46.102Z,100654.75
2023-04-05T17:07:51.966Z,100640.84
2023-04-05T17:12:59.297Z,100627.44
2023-04-05T17:18:04.604Z,100621.28
2023-04-05T17:23:10.053Z,100619.50
2023-04-05T17:28:15.437Z,100608.06
2023-04-05T17:33:20.992Z,100597.63
2023-04-05T17:38:28.866Z,100609.69
2023-04-05T17:43:34.268Z,100610.34
2023-04-05T17:48:39.547Z,100593.50
2023-04-05T17:53:44.997Z,100607.41
2023-04-05T17:58:50.331Z,100600.47
2023-04-05T18:03:55.941Z,100593.66
2023-04-05T18:09:02.090Z,100585.56
2023-04-05T18:14:08.540Z,100613.00
2023-04-05T18:19:14.333Z,100611.38
2023-04-05T18:24:20.857Z,100633.84
2023-04-05T18:29:29.779Z,100646.09
2023-04-05T18:34:36.190Z,100628.53
2023-04-05T18:39:41.525Z,100628.88
2023-04-05T18:44:47.079Z,100653.19
2023-04-05T18:49:53.518Z,100628.53
2023-04-05T18:55:00.164Z,100628.53
2023-04-05T19:00:06.787Z,100656.13
2023-04-05T19:05:12.614Z,100638.47
2023-04-05T19:10:18.912Z,100629.78
2023-04-05T19:15:24.381Z,100636.75
2023-04-05T19:20:29.248Z,100617.41
2023-04-05T19:25:34.537Z,100622.03
2023-04-05T19:30:42.971Z,100620.84
2023-04-05T19:35:48.189Z,100601.50
2023-04-05T19:40:53.693Z,100592.41
2023-04-05T19:46:00.806Z,100608.38
2023-04-05T19:51:08.620Z,100593.69
2023-04-05T19:56:33.597Z,100595.88
2023-04-05T20:01:42.255Z,100579.81
2023-04-05T20:06:57.915Z,100568.25
2023-04-05T20:12:05.815Z,100570.91
2023-04-05T20:17:16.038Z,100575.00
2023-04-05T20:22:22.653Z,100567.91
2023-04-05T20:27:29.527Z,100563.75
2023-04-05T20:32:35.023Z,100568.53
2023-04-05T20:37:41.043Z,100578.97
2023-04-05T20:42:48.266Z,100565.59
2023-04-05T20:47:54.518Z,100567.25
2023-04-05T20:53:00.124Z,100574.19
2023-04-05T20:58:06.199Z,100593.03
2023-04-05T21:03:11.653Z,100607.91
2023-04-05T21:08:17.577Z,100591.88
2023-04-05T21:13:27.222Z,100602.63
2023-04-05T21:18:32.370Z,100614.53
2023-04-05T21:23:37.464Z,100611.88
2023-04-05T21:28:42.409Z,100627.56
2023-04-05T21:33:47.481Z,100652.66
2023-04-05T21:38:52.666Z,100652.84
2023-04-05T21:43:58.859Z,100657.66
2023-04-05T21:49:03.740Z,100677.50
2023-04-05T21:54:09.022Z,100679.34
2023-04-05T21:59:14.107Z,100699.38
2023-04-05T22:04:18.950Z,100709.47
2023-04-05T22:09:24.106Z,100725.47
2023-04-05T22:14:29.928Z,100747.91
2023-04-05T22:19:35.867Z,100752.03
2023-04-05T22:24:40.722Z,100760.66
2023-04-05T22:29:45.576Z,100755.59
2023-04-05T22:34:50.537Z,100752.94
2023-04-05T22:39:55.392Z,100741.63
2023-04-05T22:45:00.171Z,100722.50
2023-04-05T22:50:05.119Z,100737.16
2023-04-05T22:55:10.767Z,100754.75
2023-04-05T23:00:16.798Z,100755.72
2023-04-05T23:05:21.796Z,100761.16
2023-04-05T23:10:26.648Z,100766.91
2023-04-05T23:15:32.214Z,100770.16
2023-04-05T23:20:37.493Z,100785.75
2023-04-05T23:25:42.667Z,100779.81
2023-04-05T23:30:47.534Z,100779.22
2023-04-05T23:35:52.815Z,100782.94
2023-04-05T23:40:58.469Z,100788.88
2023-04-05T23:46:03.608Z,100802.19
2023-04-05T23:51:09.275Z,100787.66
2023-04-05T23:56:14.997Z,100794.28
